sensor_id;sensor_type;location;lat;lon;timestamp;pressure;altitude;pressure_sealevel;temperature;humidity
51468;BME280;37545;45.302;-122.946;2023-04-05T00:00:03;101582.09;;;9.47;72.92
51468;BME280;37545;45.302;-122.946;2023-04-05T00:02:36;101569.41;;;9.15;74.98
51468;BME280;37545;45.302;-122.946;2023-04-05T00:05:06;101568.97;;;9.06;76.32
51468;BME280;37545;45.302;-122.946;2023-04-05T00:07:35;101573.69;;;9.15;78.58
51468;BME280;37545;45.302;-122.946;2023-04-05T00:10:04;101561.22;;;9.24;77.90
51468;BME280;37545;45.302;-122.946;2023-04-05T00:12:33;101563.28;;;9.31;75.82
51468;BME280;37545;45.302;-122.946;2023-04-05T00:15:03;101564.69;;;9.42;75.22
51468;BME280;37545;45.302;-122.946;2023-04-05T00:17:32;101555.19;;;9.41;71.94
51468;BME280;37545;45.302;-122.946;2023-04-05T00:20:01;101560.69;;;9.49;73.12
51468;BME280;37545;45.302;-122.946;2023-04-05T00:22:33;101557.16;;;9.67;74.84
51468;BME280;37545;45.302;-122.946;2023-04-05T00:25:02;101560.84;;;9.90;74.95
51468;BME280;37545;45.302;-122.946;2023-04-05T00:27:31;101557.44;;;10.10;74.43
51468;BME280;37545;45.302;-122.946;2023-04-05T00:30:00;101540.75;;;10.23;71.08
51468;BME280;37545;45.302;-122.946;2023-04-05T00:32:30;101544.41;;;10.47;66.59
51468;BME280;37545;45.302;-122.946;2023-04-05T00:34:58;101546.72;;;10.61;62.06
51468;BME280;37545;45.302;-122.946;2023-04-05T00:37:29;101550.25;;;10.63;62.15
51468;BME280;37545;45.302;-122.946;2023-04-05T00:39:58;101547.69;;;10.64;65.02
51468;BME280;37545;45.302;-122.946;2023-04-05T00:42:26;101549.16;;;10.58;65.02
51468;BME280;37545;45.302;-122.946;2023-04-05T00:44:55;101555.16;;;10.37;55.70
51468;BME280;37545;45.302;-122.946;2023-04-05T00:47:24;101557.22;;;10.25;57.54
51468;BME280;37545;45.302;-122.946;2023-04-05T00:49:54;101548.56;;;10.24;61.75
51468;BME280;37545;45.302;-122.946;2023-04-05T00:52:23;101558.75;;;10.21;64.40
51468;BME280;37545;45.302;-122.946;2023-04-05T00:54:52;101557.47;;;10.12;60.70
51468;BME280;37545;45.302;-122.946;2023-04-05T00:57:22;101552.84;;;10.04;64.24
51468;BME280;37545;45.302;-122.946;2023-04-05T00:59:51;101554.63;;;10.05;69.34
51468;BME280;37545;45.302;-122.946;2023-04-05T01:02:27;101561.56;;;10.06;69.50
51468;BME280;37545;45.302;-122.946;2023-04-05T01:05:03;101560.69;;;10.06;68.25
51468;BME280;37545;45.302;-122.946;2023-04-05T01:07:39;101562.72;;;10.13;65.91
51468;BME280;37545;45.302;-122.946;2023-04-05T01:10:12;101563.00;;;10.19;66.52
51468;BME280;37545;45.302;-122.946;2023-04-05T01:12:43;101566.97;;;10.31;65.83
51468;BME280;37545;45.302;-122.946;2023-04-05T01:15:12;101566.22;;;10.33;64.56
51468;BME280;37545;45.302;-122.946;2023-04-05T01:17:41;101561.06;;;10.33;61.75
51468;BME280;37545;45.302;-122.946;2023-04-05T01:20:14;101564.66;;;10.37;62.33
51468;BME280;37545;45.302;-122.946;2023-04-05T01:28:59;101575.13;;;10.20;63.56
51468;BME280;37545;45.302;-122.946;2023-04-05T01:31:42;101579.13;;;10.14;64.72
51468;BME280;37545;45.302;-122.946;2023-04-05T01:34:24;101580.44;;;10.04;66.16
51468;BME280;37545;45.302;-122.946;2023-04-05T01:36:56;101570.69;;;9.98;66.79
51468;BME280;37545;45.302;-122.946;2023-04-05T01:39:25;101582.59;;;9.95;66.73
51468;BME280;37545;45.302;-122.946;2023-04-05T01:41:58;101578.19;;;9.92;68.02
51468;BME280;37545;45.302;-122.946;2023-04-05T01:44:26;101583.19;;;9.89;67.84
51468;BME280;37545;45.302;-122.946;2023-04-05T01:46:56;101579.38;;;9.81;68.37
51468;BME280;37545;45.302;-122.946;2023-04-05T01:49:25;101580.88;;;9.76;69.78
51468;BME280;37545;45.302;-122.946;2023-04-05T01:51:54;101574.53;;;9.69;69.32
51468;BME280;37545;45.302;-122.946;2023-04-05T01:54:22;101575.97;;;9.62;71.80
51468;BME280;37545;45.302;-122.946;2023-04-05T01:56:51;101580.16;;;9.60;72.35
51468;BME280;37545;45.302;-122.946;2023-04-05T01:59:19;101586.88;;;9.57;71.65
51468;BME280;37545;45.302;-122.946;2023-04-05T02:01:48;101588.22;;;9.49;70.58
51468;BME280;37545;45.302;-122.946;2023-04-05T02:04:18;101565.00;;;9.31;69.82
51468;BME280;37545;45.302;-122.946;2023-04-05T02:06:46;101577.09;;;9.32;70.76
51468;BME280;37545;45.302;-122.946;2023-04-05T02:09:15;101579.75;;;9.33;69.75
51468;BME280;37545;45.302;-122.946;2023-04-05T02:11:43;101576.84;;;9.27;69.15
51468;BME280;37545;45.302;-122.946;2023-04-05T02:14:12;101581.06;;;9.25;70.30
51468;BME280;37545;45.302;-122.946;2023-04-05T02:16:40;101574.81;;;9.20;71.51
51468;BME280;37545;45.302;-122.946;2023-04-05T02:19:10;101590.16;;;9.17;72.11
51468;BME280;37545;45.302;-122.946;2023-04-05T02:21:40;101570.75;;;9.07;72.76
51468;BME280;37545;45.302;-122.946;2023-04-05T02:24:09;101586.06;;;9.04;72.56
51468;BME280;37545;45.302;-122.946;2023-04-05T02:26:37;101579.81;;;8.99;72.76
51468;BME280;37545;45.302;-122.946;2023-04-05T02:29:06;101578.72;;;8.94;74.08
51468;BME280;37545;45.302;-122.946;2023-04-05T02:31:34;101576.78;;;8.90;74.06
51468;BME280;37545;45.302;-122.946;2023-04-05T02:34:03;101578.31;;;8.86;75.64
51468;BME280;37545;45.302;-122.946;2023-04-05T02:36:37;101579.69;;;8.79;76.19
51468;BME280;37545;45.302;-122.946;2023-04-05T02:39:09;101591.13;;;8.67;77.02
51468;BME280;37545;45.302;-122.946;2023-04-05T02:41:39;101585.41;;;8.56;77.66
51468;BME280;37545;45.302;-122.946;2023-04-05T02:44:08;101590.97;;;8.47;78.27
51468;BME280;37545;45.302;-122.946;2023-04-05T02:46:36;101591.66;;;8.43;80.16
51468;BME280;37545;45.302;-122.946;2023-04-05T02:49:05;101593.41;;;8.44;80.71
51468;BME280;37545;45.302;-122.946;2023-04-05T02:51:33;101604.59;;;8.45;81.54
51468;BME280;37545;45.302;-122.946;2023-04-05T02:54:02;101614.50;;;8.37;82.61
51468;BME280;37545;45.302;-122.946;2023-04-05T02:56:32;101606.66;;;8.35;82.85
51468;BME280;37545;45.302;-122.946;2023-04-05T02:59:02;101593.88;;;8.21;82.00
51468;BME280;37545;45.302;-122.946;2023-04-05T03:01:30;101609.97;;;8.16;81.13
51468;BME280;37545;45.302;-122.946;2023-04-05T03:04:02;101614.56;;;8.06;82.44
51468;BME280;37545;45.302;-122.946;2023-04-05T03:06:30;101621.16;;;8.01;83.19
51468;BME280;37545;45.302;-122.946;2023-04-05T03:08:59;101619.31;;;7.98;84.88
51468;BME280;37545;45.302;-122.946;2023-04-05T03:11:30;101615.66;;;7.94;85.70
51468;BME280;37545;45.302;-122.946;2023-04-05T03:14:00;101625.09;;;7.94;88.02
51468;BME280;37545;45.302;-122.946;2023-04-05T03:16:29;101621.88;;;7.82;89.47
51468;BME280;37545;45.302;-122.946;2023-04-05T03:18:57;101639.03;;;7.81;90.15
51468;BME280;37545;45.302;-122.946;2023-04-05T03:21:27;101630.06;;;7.74;91.12
51468;BME280;37545;45.302;-122.946;2023-04-05T03:23:56;101627.56;;;7.76;91.39
51468;BME280;37545;45.302;-122.946;2023-04-05T03:26:25;101632.34;;;7.85;92.17
51468;BME280;37545;45.302;-122.946;2023-04-05T03:28:53;101633.56;;;7.91;91.79
51468;BME280;37545;45.302;-122.946;2023-04-05T03:31:23;101633.81;;;7.96;92.23
51468;BME280;37545;45.302;-122.946;2023-04-05T03:33:54;101639.59;;;7.92;93.23
51468;BME280;37545;45.302;-122.946;2023-04-05T03:36:23;101643.72;;;7.88;94.18
51468;BME280;37545;45.302;-122.946;2023-04-05T03:38:54;101653.28;;;7.91;92.36
51468;BME280;37545;45.302;-122.946;2023-04-05T03:41:22;101639.53;;;7.90;92.60
51468;BME280;37545;45.302;-122.946;2023-04-05T03:43:51;101636.44;;;7.81;89.81
51468;BME280;37545;45.302;-122.946;2023-04-05T03:46:19;101648.19;;;7.92;90.09
51468;BME280;37545;45.302;-122.946;2023-04-05T03:48:50;101642.78;;;7.88;90.33
51468;BME280;37545;45.302;-122.946;2023-04-05T03:51:18;101655.06;;;7.92;90.56
51468;BME280;37545;45.302;-122.946;2023-04-05T03:53:47;101656.66;;;7.90;91.21
51468;BME280;37545;45.302;-122.946;2023-04-05T03:56:15;101653.91;;;7.87;90.43
51468;BME280;37545;45.302;-122.946;2023-04-05T03:58:44;101653.91;;;7.87;91.91
51468;BME280;37545;45.302;-122.946;2023-04-05T04:01:13;101660.06;;;7.89;91.80
51468;BME280;37545;45.302;-122.946;2023-04-05T04:03:42;101667.88;;;7.90;91.66
51468;BME280;37545;45.302;-122.946;2023-04-05T04:06:13;101656.50;;;7.87;89.77
51468;BME280;37545;45.302;-122.946;2023-04-05T04:08:41;101661.03;;;7.91;90.20
51468;BME280;37545;45.302;-122.946;2023-04-05T04:11:10;101665.19;;;7.89;89.27
51468;BME280;37545;45.302;-122.946;2023-04-05T04:13:38;101662.53;;;7.87;90.03
51468;BME280;37545;45.302;-122.946;2023-04-05T04:16:07;101662.47;;;7.86;89.39
51468;BME280;37545;45.302;-122.946;2023-04-05T04:18:36;101675.34;;;7.86;89.48
51468;BME280;37545;45.302;-122.946;2023-04-05T04:21:05;101680.16;;;7.80;89.08
51468;BME280;37545;45.302;-122.946;2023-04-05T04:23:35;101677.16;;;7.72;89.87
51468;BME280;37545;45.302;-122.946;2023-04-05T04:26:04;101682.06;;;7.67;90.95
51468;BME280;37545;45.302;-122.946;2023-04-05T04:28:32;101679.38;;;7.66;91.04
51468;BME280;37545;45.302;-122.946;2023-04-05T04:31:04;101682.06;;;7.67;89.84
51468;BME280;37545;45.302;-122.946;2023-04-05T04:33:34;101683.66;;;7.65;89.15
51468;BME280;37545;45.302;-122.946;2023-04-05T04:36:07;101693.00;;;7.63;89.52
51468;BME280;37545;45.302;-122.946;2023-04-05T04:38:41;101681.09;;;7.50;89.41
51468;BME280;37545;45.302;-122.946;2023-04-05T04:41:10;101701.16;;;7.56;89.33
51468;BME280;37545;45.302;-122.946;2023-04-05T04:43:38;101684.28;;;7.46;88.96
51468;BME280;37545;45.302;-122.946;2023-04-05T04:46:12;101692.00;;;7.46;89.17
51468;BME280;37545;45.302;-122.946;2023-04-05T04:48:44;101702.25;;;7.45;88.69
51468;BME280;37545;45.302;-122.946;2023-04-05T04:51:13;101699.41;;;7.40;90.11
51468;BME280;37545;45.302;-122.946;2023-04-05T04:53:43;101702.44;;;7.33;89.61
51468;BME280;37545;45.302;-122.946;2023-04-05T04:56:12;101707.22;;;7.27;91.28
51468;BME280;37545;45.302;-122.946;2023-04-05T04:58:41;101725.13;;;7.25;91.36
51468;BME280;37545;45.302;-122.946;2023-04-05T05:01:09;101708.72;;;7.23;92.71
51468;BME280;37545;45.302;-122.946;2023-04-05T05:03:38;101706.69;;;7.18;92.66
51468;BME280;37545;45.302;-122.946;2023-04-05T05:06:07;101704.19;;;7.19;92.75
51468;BME280;37545;45.302;-122.946;2023-04-05T05:08:35;101708.53;;;7.20;93.27
51468;BME280;37545;45.302;-122.946;2023-04-05T05:11:07;101707.56;;;7.18;92.93
51468;BME280;37545;45.302;-122.946;2023-04-05T05:13:36;101719.88;;;7.24;93.07
51468;BME280;37545;45.302;-122.946;2023-04-05T05:16:05;101721.59;;;7.23;93.60
51468;BME280;37545;45.302;-122.946;2023-04-05T05:18:35;101723.38;;;7.24;93.49
51468;BME280;37545;45.302;-122.946;2023-04-05T05:21:05;101711.13;;;7.20;93.31
51468;BME280;37545;45.302;-122.946;2023-04-05T05:23:34;101712.72;;;7.18;93.77
51468;BME280;37545;45.302;-122.946;2023-04-05T05:26:02;101712.53;;;7.15;94.58
51468;BME280;37545;45.302;-122.946;2023-04-05T05:28:33;101718.91;;;7.07;96.43
51468;BME280;37545;45.302;-122.946;2023-04-05T05:31:05;101719.34;;;7.00;96.43
51468;BME280;37545;45.302;-122.946;2023-04-05T05:33:34;101715.63;;;6.95;97.06
51468;BME280;37545;45.302;-122.946;2023-04-05T05:36:02;101725.81;;;6.93;98.18
51468;BME280;37545;45.302;-122.946;2023-04-05T05:38:32;101718.91;;;6.92;97.82
51468;BME280;37545;45.302;-122.946;2023-04-05T05:41:01;101719.88;;;6.94;96.84
51468;BME280;37545;45.302;-122.946;2023-04-05T05:43:29;101727.69;;;6.96;96.99
51468;BME280;37545;45.302;-122.946;2023-04-05T05:46:01;101721.53;;;6.93;96.34
51468;BME280;37545;45.302;-122.946;2023-04-05T05:48:30;101723.78;;;6.87;97.40
51468;BME280;37545;45.302;-122.946;2023-04-05T05:50:59;101720.81;;;6.81;96.43
51468;BME280;37545;45.302;-122.946;2023-04-05T05:53:35;101725.97;;;6.81;97.18
51468;BME280;37545;45.302;-122.946;2023-04-05T05:56:04;101723.41;;;6.81;97.44
51468;BME280;37545;45.302;-122.946;2023-04-05T05:58:33;101725.38;;;6.85;96.79
51468;BME280;37545;45.302;-122.946;2023-04-05T06:01:04;101718.63;;;6.87;95.73
51468;BME280;37545;45.302;-122.946;2023-04-05T06:03:34;101722.19;;;6.89;94.03
51468;BME280;37545;45.302;-122.946;2023-04-05T06:06:03;101718.91;;;6.92;94.47
51468;BME280;37545;45.302;-122.946;2023-04-05T06:08:33;101729.25;;;6.93;94.45
51468;BME280;37545;45.302;-122.946;2023-04-05T06:11:02;101722.34;;;6.92;94.91
51468;BME280;37545;45.302;-122.946;2023-04-05T06:13:30;101725.03;;;6.94;94.89
51468;BME280;37545;45.302;-122.946;2023-04-05T06:16:02;101723.78;;;6.87;96.34
51468;BME280;37545;45.302;-122.946;2023-04-05T06:18:31;101719.41;;;6.86;95.38
51468;BME280;37545;45.302;-122.946;2023-04-05T06:20:59;101722.19;;;6.89;96.59
51468;BME280;37545;45.302;-122.946;2023-04-05T06:23:28;101709.72;;;6.82;95.63
51468;BME280;37545;45.302;-122.946;2023-04-05T06:25:57;101721.00;;;6.84;96.81
51468;BME280;37545;45.302;-122.946;2023-04-05T06:28:25;101715.84;;;6.84;95.87
51468;BME280;37545;45.302;-122.946;2023-04-05T06:30:56;101712.50;;;6.85;95.19
51468;BME280;37545;45.302;-122.946;2023-04-05T06:33:27;101718.81;;;6.90;94.72
51468;BME280;37545;45.302;-122.946;2023-04-05T06:35:55;101709.31;;;6.89;95.06
51468;BME280;37545;45.302;-122.946;2023-04-05T06:38:24;101717.38;;;6.81;94.62
51468;BME280;37545;45.302;-122.946;2023-04-05T06:40:52;101721.81;;;6.83;95.54
51468;BME280;37545;45.302;-122.946;2023-04-05T06:43:21;101718.16;;;6.80;96.46
51468;BME280;37545;45.302;-122.946;2023-04-05T06:45:49;101732.69;;;6.79;95.89
51468;BME280;37545;45.302;-122.946;2023-04-05T06:48:18;101724.81;;;6.76;95.64
51468;BME280;37545;45.302;-122.946;2023-04-05T06:51:00;101737.75;;;6.78;97.07
51468;BME280;37545;45.302;-122.946;2023-04-05T06:53:28;101729.31;;;6.80;96.89
51468;BME280;37545;45.302;-122.946;2023-04-05T06:56:04;101731.22;;;6.83;96.85
51468;BME280;37545;45.302;-122.946;2023-04-05T06:58:33;101729.53;;;6.83;95.34
51468;BME280;37545;45.302;-122.946;2023-04-05T07:01:02;101725.09;;;6.81;94.90
51468;BME280;37545;45.302;-122.946;2023-04-05T07:03:30;101732.09;;;6.83;94.67
51468;BME280;37545;45.302;-122.946;2023-04-05T07:06:01;101724.00;;;6.77;93.13
51468;BME280;37545;45.302;-122.946;2023-04-05T07:08:31;101733.41;;;6.77;91.78
51468;BME280;37545;45.302;-122.946;2023-04-05T07:10:59;101733.31;;;6.75;92.19
51468;BME280;37545;45.302;-122.946;2023-04-05T07:13:28;101730.38;;;6.69;91.14
51468;BME280;37545;45.302;-122.946;2023-04-05T07:15:59;101736.84;;;6.62;92.46
51468;BME280;37545;45.302;-122.946;2023-04-05T07:18:28;101724.13;;;6.50;92.69
51468;BME280;37545;45.302;-122.946;2023-04-05T07:20:57;101737.94;;;6.53;92.23
51468;BME280;37545;45.302;-122.946;2023-04-05T07:23:31;101739.34;;;6.47;92.92
51468;BME280;37545;45.302;-122.946;2023-04-05T07:26:01;101742.63;;;6.45;93.80
51468;BME280;37545;45.302;-122.946;2023-04-05T07:28:31;101749.34;;;6.43;93.17
51468;BME280;37545;45.302;-122.946;2023-04-05T07:31:01;101737.78;;;6.36;93.09
51468;BME280;37545;45.302;-122.946;2023-04-05T07:33:30;101739.28;;;6.33;93.16
51468;BME280;37545;45.302;-122.946;2023-04-05T07:35:58;101746.72;;;6.28;92.77
51468;BME280;37545;45.302;-122.946;2023-04-05T07:38:28;101742.06;;;6.22;93.46
51468;BME280;37545;45.302;-122.946;2023-04-05T07:40:58;101748.72;;;6.19;93.17
51468;BME280;37545;45.302;-122.946;2023-04-05T07:43:27;101748.31;;;6.13;92.79
51468;BME280;37545;45.302;-122.946;2023-04-05T07:46:00;101743.47;;;6.04;92.98
51468;BME280;37545;45.302;-122.946;2023-04-05T07:48:30;101744.97;;;6.00;93.73
51468;BME280;37545;45.302;-122.946;2023-04-05T07:51:09;101752.69;;;6.00;94.41
51468;BME280;37545;45.302;-122.946;2023-04-05T07:53:38;101749.91;;;5.97;94.44
51468;BME280;37545;45.302;-122.946;2023-04-05T07:56:10;101754.84;;;5.94;94.55
51468;BME280;37545;45.302;-122.946;2023-04-05T07:58:39;101745.94;;;5.89;95.02
51468;BME280;37545;45.302;-122.946;2023-04-05T08:01:09;101754.22;;;5.85;95.00
51468;BME280;37545;45.302;-122.946;2023-04-05T08:03:38;101754.22;;;5.85;95.20
51468;BME280;37545;45.302;-122.946;2023-04-05T08:06:10;101757.38;;;5.81;95.26
51468;BME280;37545;45.302;-122.946;2023-04-05T08:08:38;101755.41;;;5.77;95.70
51468;BME280;37545;45.302;-122.946;2023-04-05T08:11:09;101753.53;;;5.74;96.08
51468;BME280;37545;45.302;-122.946;2023-04-05T08:13:38;101756.00;;;5.73;95.98
51468;BME280;37545;45.302;-122.946;2023-04-05T08:16:07;101758.34;;;5.70;95.87
51468;BME280;37545;45.302;-122.946;2023-04-05T08:18:36;101753.81;;;5.65;95.00
51468;BME280;37545;45.302;-122.946;2023-04-05T08:21:05;101753.81;;;5.52;95.99
51468;BME280;37545;45.302;-122.946;2023-04-05T08:23:33;101766.81;;;5.42;97.73
51468;BME280;37545;45.302;-122.946;2023-04-05T08:26:02;101765.50;;;5.35;98.80
51468;BME280;37545;45.302;-122.946;2023-04-05T08:28:32;101768.66;;;5.31;99.37
51468;BME280;37545;45.302;-122.946;2023-04-05T08:31:01;101766.59;;;5.25;99.65
51468;BME280;37545;45.302;-122.946;2023-04-05T08:33:30;101764.81;;;5.24;98.69
51468;BME280;37545;45.302;-122.946;2023-04-05T08:36:04;101762.91;;;5.22;99.21
51468;BME280;37545;45.302;-122.946;2023-04-05T08:38:32;101768.97;;;5.22;99.56
51468;BME280;37545;45.302;-122.946;2023-04-05T08:41:07;101760.16;;;5.19;98.09
51468;BME280;37545;45.302;-122.946;2023-04-05T08:43:54;101757.16;;;5.13;98.09
51468;BME280;37545;45.302;-122.946;2023-04-05T08:46:23;101765.78;;;5.13;98.21
51468;BME280;37545;45.302;-122.946;2023-04-05T08:48:52;101762.09;;;5.10;97.45
51468;BME280;37545;45.302;-122.946;2023-04-05T08:51:22;101763.25;;;5.01;96.77
51468;BME280;37545;45.302;-122.946;2023-04-05T08:53:52;101767.47;;;5.01;97.85
51468;BME280;37545;45.302;-122.946;2023-04-05T08:56:24;101763.91;;;4.99;97.64
51468;BME280;37545;45.302;-122.946;2023-04-05T08:58:59;101770.63;;;4.97;97.08
51468;BME280;37545;45.302;-122.946;2023-04-05T09:01:30;101766.09;;;4.93;96.96
51468;BME280;37545;45.302;-122.946;2023-04-05T09:04:00;101769.34;;;4.90;97.38
51468;BME280;37545;45.302;-122.946;2023-04-05T09:06:29;101768.22;;;4.87;98.08
51468;BME280;37545;45.302;-122.946;2023-04-05T09:08:58;101768.03;;;4.83;97.43
51468;BME280;37545;45.302;-122.946;2023-04-05T09:11:27;101765.03;;;4.77;96.55
51468;BME280;37545;45.302;-122.946;2023-04-05T09:13:57;101767.41;;;4.74;95.82
51468;BME280;37545;45.302;-122.946;2023-04-05T09:16:26;101763.59;;;4.69;97.02
51468;BME280;37545;45.302;-122.946;2023-04-05T09:18:55;101751.72;;;4.58;97.30
51468;BME280;37545;45.302;-122.946;2023-04-05T09:21:23;101768.41;;;4.65;97.61
51468;BME280;37545;45.302;-122.946;2023-04-05T09:23:55;101759.50;;;4.59;97.55
51468;BME280;37545;45.302;-122.946;2023-04-05T09:26:24;101760.31;;;4.58;97.23
51468;BME280;37545;45.302;-122.946;2023-04-05T09:28:53;101757.44;;;4.54;96.89
51468;BME280;37545;45.302;-122.946;2023-04-05T09:31:33;101763.22;;;4.51;97.58
51468;BME280;37545;45.302;-122.946;2023-04-05T09:34:03;101772.56;;;4.51;98.06
51468;BME280;37545;45.302;-122.946;2023-04-05T09:36:33;101761.31;;;4.49;98.57
51468;BME280;37545;45.302;-122.946;2023-04-05T09:39:05;101763.00;;;4.48;99.70
51468;BME280;37545;45.302;-122.946;2023-04-05T09:41:34;101762.31;;;4.51;99.63
51468;BME280;37545;45.302;-122.946;2023-04-05T09:44:04;101757.00;;;4.48;99.70
51468;BME280;37545;45.302;-122.946;2023-04-05T09:46:35;101755.22;;;4.47;99.15
51468;BME280;37545;45.302;-122.946;2023-04-05T09:49:04;101746.53;;;4.45;99.51
51468;BME280;37545;45.302;-122.946;2023-04-05T09:51:37;101746.31;;;4.41;99.31
51468;BME280;37545;45.302;-122.946;2023-04-05T09:54:07;101758.34;;;4.43;99.55
51468;BME280;37545;45.302;-122.946;2023-04-05T09:56:36;101752.97;;;4.39;99.25
51468;BME280;37545;45.302;-122.946;2023-04-05T09:59:06;101753.47;;;4.34;100.00
51468;BME280;37545;45.302;-122.946;2023-04-05T10:01:37;101750.91;;;4.34;100.00
51468;BME280;37545;45.302;-122.946;2023-04-05T10:04:06;101750.00;;;4.33;100.00
51468;BME280;37545;45.302;-122.946;2023-04-05T10:06:35;101747.66;;;4.36;100.00
51468;BME280;37545;45.302;-122.946;2023-04-05T10:09:06;101756.53;;;4.41;100.00
51468;BME280;37545;45.302;-122.946;2023-04-05T10:11:35;101740.09;;;4.38;100.00
51468;BME280;37545;45.302;-122.946;2023-04-05T10:14:05;101738.97;;;4.34;100.00
51468;BME280;37545;45.302;-122.946;2023-04-05T10:16:41;101741.72;;;4.37;100.00
51468;BME280;37545;45.302;-122.946;2023-04-05T10:19:15;101739.41;;;4.40;100.00
51468;BME280;37545;45.302;-122.946;2023-04-05T10:21:47;101740.97;;;4.38;100.00
51468;BME280;37545;45.302;-122.946;2023-04-05T10:24:24;101745.28;;;4.39;100.00
51468;BME280;37545;45.302;-122.946;2023-04-05T10:27:08;101744.53;;;4.40;100.00
51468;BME280;37545;45.302;-122.946;2023-04-05T10:29:45;101746.22;;;4.40;100.00
51468;BME280;37545;45.302;-122.946;2023-04-05T10:32:24;101750.34;;;4.38;100.00
51468;BME280;37545;45.302;-122.946;2023-04-05T10:35:06;101751.41;;;4.41;100.00
51468;BME280;37545;45.302;-122.946;2023-04-05T10:37:45;101745.63;;;4.44;100.00
51468;BME280;37545;45.302;-122.946;2023-04-05T10:40:20;101747.63;;;4.48;100.00
51468;BME280;37545;45.302;-122.946;2023-04-05T10:42:49;101747.75;;;4.50;100.00
51468;BME280;37545;45.302;-122.946;2023-04-05T10:45:19;101743.69;;;4.53;100.00
51468;BME280;37545;45.302;-122.946;2023-04-05T10:48:07;101750.81;;;4.57;100.00
51468;BME280;37545;45.302;-122.946;2023-04-05T10:50:38;101739.69;;;4.57;100.00
51468;BME280;37545;45.302;-122.946;2023-04-05T10:53:08;101744.94;;;4.58;100.00
51468;BME280;37545;45.302;-122.946;2023-04-05T10:55:38;101743.06;;;4.56;100.00
51468;BME280;37545;45.302;-122.946;2023-04-05T10:58:07;101741.44;;;4.58;100.00
51468;BME280;37545;45.302;-122.946;2023-04-05T11:00:37;101741.38;;;4.56;100.00
51468;BME280;37545;45.302;-122.946;2023-04-05T11:03:08;101754.28;;;4.58;100.00
51468;BME280;37545;45.302;-122.946;2023-04-05T11:05:36;101748.25;;;4.57;100.00
51468;BME280;37545;45.302;-122.946;2023-04-05T11:08:06;101743.81;;;4.55;100.00
51468;BME280;37545;45.302;-122.946;2023-04-05T11:10:36;101748.94;;;4.55;100.00
51468;BME280;37545;45.302;-122.946;2023-04-05T11:13:07;101745.19;;;4.50;100.00
51468;BME280;37545;45.302;-122.946;2023-04-05T11:15:36;101745.53;;;4.43;100.00
51468;BME280;37545;45.302;-122.946;2023-04-05T11:18:11;101742.84;;;4.41;100.00
51468;BME280;37545;45.302;-122.946;2023-04-05T11:20:48;101746.97;;;4.39;100.00
51468;BME280;37545;45.302;-122.946;2023-04-05T11:23:19;101747.84;;;4.39;100.00
51468;BME280;37545;45.302;-122.946;2023-04-05T11:25:50;101738.09;;;4.34;100.00
51468;BME280;37545;45.302;-122.946;2023-04-05T11:28:23;101744.53;;;4.40;100.00
51468;BME280;37545;45.302;-122.946;2023-04-05T11:30:53;101750.53;;;4.41;100.00
51468;BME280;37545;45.302;-122.946;2023-04-05T11:33:52;101746.09;;;4.38;100.00
51468;BME280;37545;45.302;-122.946;2023-04-05T11:36:37;101745.09;;;4.36;100.00
51468;BME280;37545;45.302;-122.946;2023-04-05T11:39:25;101751.66;;;4.33;100.00
51468;BME280;37545;45.302;-122.946;2023-04-05T11:41:57;101743.22;;;4.34;100.00
51468;BME280;37545;45.302;-122.946;2023-04-05T11:44:26;101744.09;;;4.34;100.00
51468;BME280;37545;45.302;-122.946;2023-04-05T11:46:55;101741.84;;;4.39;100.00
51468;BME280;37545;45.302;-122.946;2023-04-05T11:49:26;101743.66;;;4.40;100.00
51468;BME280;37545;45.302;-122.946;2023-04-05T11:51:55;101744.72;;;4.44;100.00
51468;BME280;37545;45.302;-122.946;2023-04-05T11:54:33;101743.84;;;4.43;100.00
51468;BME280;37545;45.302;-122.946;2023-04-05T11:57:01;101745.75;;;4.46;100.00
51468;BME280;37545;45.302;-122.946;2023-04-05T11:59:31;101733.91;;;4.48;100.00
51468;BME280;37545;45.302;-122.946;2023-04-05T12:02:00;101730.00;;;4.53;100.00
51468;BME280;37545;45.302;-122.946;2023-04-05T12:04:31;101728.56;;;4.56;100.00
51468;BME280;37545;45.302;-122.946;2023-04-05T12:07:10;101720.19;;;4.59;100.00
51468;BME280;37545;45.302;-122.946;2023-04-05T12:09:58;101728.75;;;4.59;100.00
51468;BME280;37545;45.302;-122.946;2023-04-05T12:12:28;101732.00;;;4.57;100.00
51468;BME280;37545;45.302;-122.946;2023-04-05T12:15:00;101731.19;;;4.58;100.00
51468;BME280;37545;45.302;-122.946;2023-04-05T12:17:45;101739.88;;;4.60;100.00
51468;BME280;37545;45.302;-122.946;2023-04-05T12:20:17;101724.31;;;4.57;100.00
51468;BME280;37545;45.302;-122.946;2023-04-05T12:22:47;101737.56;;;4.63;100.00
51468;BME280;37545;45.302;-122.946;2023-04-05T12:25:17;101733.44;;;4.65;100.00
51468;BME280;37545;45.302;-122.946;2023-04-05T12:27:46;101735.00;;;4.63;100.00
51468;BME280;37545;45.302;-122.946;2023-04-05T12:30:15;101723.06;;;4.64;100.00
51468;BME280;37545;45.302;-122.946;2023-04-05T12:32:46;101722.38;;;4.66;100.00
51468;BME280;37545;45.302;-122.946;2023-04-05T12:35:21;101724.13;;;4.67;100.00
51468;BME280;37545;45.302;-122.946;2023-04-05T12:37:50;101715.06;;;4.59;100.00
51468;BME280;37545;45.302;-122.946;2023-04-05T12:40:22;101723.94;;;4.64;100.00
51468;BME280;37545;45.302;-122.946;2023-04-05T12:42:51;101730.63;;;4.62;100.00
51468;BME280;37545;45.302;-122.946;2023-04-05T12:45:22;101725.50;;;4.62;100.00
51468;BME280;37545;45.302;-122.946;2023-04-05T12:47:56;101727.00;;;4.58;100.00
51468;BME280;37545;45.302;-122.946;2023-04-05T12:50:30;101725.31;;;4.59;100.00